createdAt,value
2019-05-16T00:03:42.090Z,5.70
2019-05-16T00:08:11.906Z,5.23
2019-05-16T00:12:32.616Z,6.30
2019-05-16T00:16:58.923Z,5.97
2019-05-16T00:21:23.160Z,5.40
2019-05-16T00:25:48.705Z,6.80
2019-05-16T00:30:13.007Z,5.00
2019-05-16T00:34:38.491Z,4.80
2019-05-16T00:39:04.917Z,5.83
2019-05-16T00:43:29.108Z,5.07
2019-05-16T00:47:54.222Z,4.03
2019-05-16T00:52:18.548Z,4.10
2019-05-16T00:56:43.418Z,4.00
2019-05-16T01:01:08.519Z,3.73
2019-05-16T01:05:33.045Z,3.23
2019-05-16T01:09:58.331Z,4.30
2019-05-16T01:14:22.681Z,4.10
2019-05-16T01:18:48.648Z,3.87
2019-05-16T01:23:12.474Z,3.37
2019-05-16T01:27:38.656Z,4.53
2019-05-16T01:32:03.805Z,3.92
2019-05-16T01:36:36.872Z,3.60
2019-05-16T01:40:53.350Z,3.30
2019-05-16T01:45:18.988Z,3.30
2019-05-16T01:49:43.674Z,3.73
2019-05-16T01:54:08.689Z,3.37
2019-05-16T01:58:32.592Z,3.30
2019-05-16T02:02:57.902Z,5.53
2019-05-16T02:07:21.717Z,3.50
2019-05-16T02:11:48.021Z,3.37
2019-05-16T02:16:11.888Z,5.10
2019-05-16T02:20:35.784Z,3.83
2019-05-16T02:25:00.936Z,4.33
2019-05-16T02:29:25.044Z,3.20
2019-05-16T02:33:52.335Z,3.67
2019-05-16T02:38:16.474Z,3.37
2019-05-16T02:42:42.814Z,3.47
2019-05-16T02:47:07.011Z,3.67
2019-05-16T02:51:31.655Z,4.40
2019-05-16T02:55:55.707Z,2.70
2019-05-16T03:00:43.122Z,2.85
2019-05-16T03:05:06.977Z,2.70
2019-05-16T03:09:32.330Z,2.47
2019-05-16T03:14:00.410Z,2.50
2019-05-16T03:18:25.522Z,2.70
2019-05-16T03:22:51.995Z,2.37
2019-05-16T03:27:16.839Z,3.87
2019-05-16T03:31:44.343Z,3.40
2019-05-16T03:36:06.711Z,2.40
2019-05-16T03:40:34.188Z,2.50
2019-05-16T03:45:01.601Z,2.23
2019-05-16T03:49:24.418Z,2.50
2019-05-16T03:53:50.717Z,2.80
2019-05-16T03:58:15.195Z,2.65
2019-05-16T04:02:42.054Z,2.10
2019-05-16T04:07:06.509Z,2.23
2019-05-16T04:11:32.126Z,2.43
2019-05-16T04:15:56.622Z,3.37
2019-05-16T04:20:21.469Z,2.20
2019-05-16T04:24:45.738Z,2.10
2019-05-16T04:29:11.803Z,2.65
2019-05-16T04:33:36.846Z,2.87
2019-05-16T04:38:01.888Z,2.60
2019-05-16T04:42:25.888Z,2.27
2019-05-16T04:46:51.049Z,2.07
2019-05-16T04:51:15.701Z,2.55
2019-05-16T04:55:42.018Z,3.20
2019-05-16T05:00:06.137Z,2.22
2019-05-16T05:04:30.857Z,2.90
2019-05-16T05:08:58.789Z,4.33
2019-05-16T05:13:22.103Z,3.20
2019-05-16T05:17:46.707Z,2.70
2019-05-16T05:22:11.124Z,3.63
2019-05-16T05:26:35.085Z,4.40
2019-05-16T05:30:59.937Z,3.03
2019-05-16T05:35:24.172Z,3.83
2019-05-16T05:39:50.345Z,2.93
2019-05-16T05:44:14.092Z,2.30
2019-05-16T05:48:40.869Z,2.17
2019-05-16T05:53:04.012Z,3.97
2019-05-16T05:57:30.018Z,3.00
2019-05-16T06:01:54.146Z,4.07
2019-05-16T06:06:18.042Z,4.17
2019-05-16T06:10:41.984Z,4.40
2019-05-16T06:15:09.046Z,7.03
2019-05-16T06:19:32.392Z,2.60
2019-05-16T06:23:56.877Z,2.03
2019-05-16T06:28:21.424Z,2.70
2019-05-16T06:32:45.648Z,4.43
2019-05-16T06:37:09.981Z,3.60
2019-05-16T06:41:34.032Z,2.57
2019-05-16T06:46:00.356Z,5.10
2019-05-16T06:50:23.548Z,2.65
2019-05-16T06:54:49.939Z,2.80
2019-05-16T06:59:13.319Z,2.85
2019-05-16T07:03:37.227Z,3.03
2019-05-16T07:08:01.108Z,2.70
2019-05-16T07:12:25.540Z,4.27
2019-05-16T07:16:49.747Z,4.27
2019-05-16T07:21:13.917Z,2.60
2019-05-16T07:25:38.053Z,2.53
2019-05-16T07:30:02.032Z,2.60
2019-05-16T07:34:26.199Z,4.10
2019-05-16T07:38:50.825Z,4.07
2019-05-16T07:43:15.808Z,4.03
2019-05-16T07:47:40.233Z,4.27
2019-05-16T07:52:05.812Z,4.80
2019-05-16T07:56:31.256Z,4.07
2019-05-16T08:01:02.617Z,3.63
2019-05-16T08:05:21.442Z,2.93
2019-05-16T08:09:45.645Z,3.08
2019-05-16T08:14:10.308Z,2.67
2019-05-16T08:18:34.412Z,2.90
2019-05-16T08:23:00.866Z,2.93
2019-05-16T08:27:25.113Z,3.70
2019-05-16T08:31:52.840Z,4.13
2019-05-16T08:36:15.731Z,4.90
2019-05-16T08:41:03.475Z,3.57
2019-05-16T08:45:12.492Z,3.30
2019-05-16T08:49:34.683Z,2.70
2019-05-16T08:54:01.554Z,3.03
2019-05-16T08:58:24.908Z,3.50
2019-05-16T09:02:52.080Z,4.13
2019-05-16T09:07:15.511Z,3.12
2019-05-16T09:11:44.610Z,3.60
2019-05-16T09:16:07.709Z,3.03
2019-05-16T09:20:32.098Z,3.00
2019-05-16T09:24:57.638Z,3.00
2019-05-16T09:29:21.988Z,3.25
2019-05-16T09:33:47.399Z,2.57
2019-05-16T09:38:11.928Z,3.60
2019-05-16T09:42:37.239Z,2.60
2019-05-16T09:47:01.345Z,2.67
2019-05-16T09:51:27.340Z,4.23
2019-05-16T09:55:51.787Z,4.10
2019-05-16T10:00:18.739Z,2.33
2019-05-16T10:04:42.690Z,3.10
2019-05-16T10:09:07.876Z,2.57
2019-05-16T10:13:31.865Z,2.50
2019-05-16T10:17:57.551Z,2.97
2019-05-16T10:22:22.222Z,2.60
2019-05-16T10:26:51.636Z,2.60
2019-05-16T10:31:13.019Z,2.77
2019-05-16T10:35:37.541Z,2.60
2019-05-16T10:40:03.451Z,2.90
2019-05-16T10:44:28.176Z,3.00
2019-05-16T10:48:53.226Z,2.70
2019-05-16T10:53:53.777Z,2.50
2019-05-16T10:57:43.900Z,2.80
2019-05-16T11:02:08.217Z,2.77
2019-05-16T11:06:32.684Z,2.97
2019-05-16T11:10:57.186Z,4.73
2019-05-16T11:15:22.869Z,2.83
2019-05-16T11:19:46.772Z,2.93
2019-05-16T11:24:13.224Z,4.50
2019-05-16T11:28:37.037Z,3.10
2019-05-16T11:33:00.980Z,3.77
2019-05-16T11:37:27.933Z,2.97
2019-05-16T11:41:52.400Z,4.07
2019-05-16T11:46:16.858Z,3.10
2019-05-16T11:50:41.002Z,3.27
2019-05-16T11:55:07.386Z,4.25
2019-05-16T11:59:33.059Z,3.90
2019-05-16T12:03:57.652Z,3.50
2019-05-16T12:08:21.795Z,2.77
2019-05-16T12:12:45.675Z,6.37
2019-05-16T12:17:10.102Z,3.75
2019-05-16T12:21:34.357Z,3.10
2019-05-16T12:26:00.147Z,3.93
2019-05-16T12:30:24.924Z,3.20
2019-05-16T12:34:48.768Z,3.30
2019-05-16T12:39:13.481Z,3.00
2019-05-16T12:43:48.724Z,4.03
2019-05-16T12:48:03.204Z,3.03
2019-05-16T12:52:27.267Z,3.97
2019-05-16T12:56:51.705Z,4.50
2019-05-16T13:01:20.190Z,3.67
2019-05-16T13:05:41.959Z,3.40
2019-05-16T13:10:08.186Z,3.63
2019-05-16T13:14:32.034Z,10.33
2019-05-16T13:18:56.717Z,4.03
2019-05-16T13:23:21.174Z,4.43
2019-05-16T13:27:47.631Z,3.20
2019-05-16T13:32:11.657Z,3.30
2019-05-16T13:36:38.888Z,4.63
2019-05-16T13:41:26.842Z,2.85
2019-05-16T13:45:50.502Z,4.13
2019-05-16T13:50:16.688Z,3.60
2019-05-16T13:54:40.580Z,4.13
2019-05-16T13:59:07.689Z,4.05
2019-05-16T14:03:31.988Z,4.53
2019-05-16T14:07:57.259Z,3.83
2019-05-16T14:12:21.835Z,4.50
2019-05-16T14:16:46.920Z,4.03
2019-05-16T14:21:11.474Z,5.55
2019-05-16T14:25:38.070Z,7.50
2019-05-16T14:30:02.814Z,4.23
2019-05-16T14:34:27.932Z,4.73
2019-05-16T14:38:52.989Z,4.47
2019-05-16T14:43:17.393Z,5.30
2019-05-16T14:47:41.581Z,6.03
2019-05-16T14:52:06.082Z,5.93
2019-05-16T14:56:30.209Z,7.03
2019-05-16T15:00:57.314Z,5.77
2019-05-16T15:05:20.217Z,5.47
2019-05-16T15:09:44.072Z,5.27
2019-05-16T15:14:07.949Z,5.07
2019-05-16T15:18:31.842Z,4.73
2019-05-16T15:22:56.855Z,6.50
2019-05-16T15:27:20.964Z,4.63
2019-05-16T15:31:46.762Z,6.93
2019-05-16T15:36:11.461Z,4.67
2019-05-16T15:40:37.681Z,6.43
2019-05-16T15:45:02.087Z,6.10
2019-05-16T15:49:27.373Z,3.63
2019-05-16T15:53:51.575Z,5.13
2019-05-16T15:58:18.061Z,6.37
2019-05-16T16:02:41.455Z,6.30
2019-05-16T16:07:07.618Z,5.77
2019-05-16T16:11:31.672Z,6.17
2019-05-16T16:15:57.670Z,5.30
2019-05-16T16:20:21.692Z,4.78
2019-05-16T16:24:47.752Z,5.60
2019-05-16T16:29:11.835Z,6.55
2019-05-16T16:33:37.441Z,6.03
2019-05-16T16:38:01.832Z,7.27
2019-05-16T16:42:27.254Z,6.00
2019-05-16T16:46:51.553Z,7.20
2019-05-16T16:51:17.584Z,6.87
2019-05-16T16:55:41.279Z,6.70
2019-05-16T17:00:07.560Z,7.20
2019-05-16T17:04:32.433Z,6.73
2019-05-16T17:08:56.941Z,5.30
2019-05-16T17:13:21.135Z,6.60
2019-05-16T17:17:46.609Z,8.27
2019-05-16T17:22:17.518Z,5.37
2019-05-16T17:26:38.455Z,6.70
2019-05-16T17:31:02.518Z,6.37
2019-05-16T17:35:26.951Z,6.60
2019-05-16T17:39:51.509Z,5.40
2019-05-16T17:44:16.170Z,5.60
2019-05-16T17:48:40.309Z,4.47
2019-05-16T17:53:07.254Z,5.17
2019-05-16T17:57:32.579Z,4.53
2019-05-16T18:01:58.122Z,5.15
2019-05-16T18:06:22.190Z,5.50
2019-05-16T18:10:47.178Z,8.58
2019-05-16T18:15:13.381Z,5.28
2019-05-16T18:19:37.548Z,6.23
2019-05-16T18:24:01.493Z,13.20
2019-05-16T18:28:26.808Z,7.87
2019-05-16T18:32:50.756Z,6.13
2019-05-16T18:37:17.162Z,6.35
2019-05-16T18:41:41.105Z,6.13
2019-05-16T18:46:07.265Z,8.38
2019-05-16T18:50:31.426Z,5.90
2019-05-16T18:54:57.663Z,5.20
2019-05-16T18:59:21.777Z,5.93
2019-05-16T19:03:46.447Z,7.33
2019-05-16T19:08:12.338Z,4.85
2019-05-16T19:12:37.388Z,5.65
2019-05-16T19:17:01.356Z,5.57
2019-05-16T19:21:26.213Z,6.10
2019-05-16T19:25:51.407Z,6.00
2019-05-16T19:30:16.648Z,7.35
2019-05-16T19:34:40.490Z,7.93
2019-05-16T19:39:26.051Z,9.00
2019-05-16T19:43:57.219Z,6.70
2019-05-16T19:48:22.213Z,5.97
2019-05-16T19:52:48.297Z,8.58
2019-05-16T19:57:13.345Z,5.97
2019-05-16T20:01:49.885Z,7.73
2019-05-16T20:06:19.549Z,7.47
2019-05-16T20:10:47.667Z,7.43
2019-05-16T20:15:13.566Z,7.53
2019-05-16T20:19:38.659Z,6.97
2019-05-16T20:24:16.700Z,7.17
2019-05-16T20:28:47.444Z,8.07
2019-05-16T20:33:11.805Z,10.03
2019-05-16T20:37:36.695Z,8.37
2019-05-16T20:42:00.822Z,7.70
2019-05-16T20:46:36.983Z,9.30
2019-05-16T20:51:07.227Z,8.13
2019-05-16T20:55:43.181Z,9.00
2019-05-16T21:00:07.969Z,9.60
2019-05-16T21:04:33.105Z,10.40
2019-05-16T21:08:57.656Z,8.77
2019-05-16T21:13:22.415Z,11.90
2019-05-16T21:17:46.737Z,9.93
2019-05-16T21:22:10.889Z,9.17
2019-05-16T21:26:36.788Z,8.53
2019-05-16T21:31:02.947Z,9.30
2019-05-16T21:35:27.188Z,10.33
2019-05-16T21:39:51.461Z,13.27
2019-05-16T21:44:17.055Z,12.45
2019-05-16T21:48:42.713Z,10.80
2019-05-16T21:53:07.355Z,12.87
2019-05-16T21:57:31.419Z,12.03
2019-05-16T22:01:56.586Z,11.77
2019-05-16T22:06:20.797Z,10.77
2019-05-16T22:10:46.699Z,15.80
2019-05-16T22:15:11.723Z,12.98
2019-05-16T22:19:37.602Z,15.67
2019-05-16T22:24:02.174Z,17.03
2019-05-16T22:28:28.500Z,15.00
2019-05-16T22:32:52.643Z,15.20
2019-05-16T22:37:17.351Z,15.57
2019-05-16T22:41:42.271Z,14.60
2019-05-16T22:46:09.762Z,15.80
2019-05-16T22:50:32.244Z,14.60
2019-05-16T22:54:56.752Z,19.43
2019-05-16T22:59:20.996Z,18.30
2019-05-16T23:03:45.208Z,16.67
2019-05-16T23:08:10.172Z,18.73
2019-05-16T23:12:34.047Z,16.23
2019-05-16T23:16:58.242Z,17.57
2019-05-16T23:21:23.068Z,21.63
2019-05-16T23:25:47.081Z,18.67
2019-05-16T23:30:13.072Z,18.07
2019-05-16T23:34:37.586Z,19.97
2019-05-16T23:39:01.747Z,19.13
2019-05-16T23:43:27.483Z,18.63
2019-05-16T23:47:52.828Z,18.13
2019-05-16T23:52:17.035Z,16.63
2019-05-16T23:56:40.903Z,17.20
